Anchor, Illinois
Current Conditions -  °F | °C
As of 7:56 AM on Friday 24 Oct 2014 (Local Time) from KBMI Reporting Station
Clear Clear  
Wind Chill: 44°   Ceiling: Unl
Heat Index: 46°   Visibility: 10mi
Dew Point: 45°   Wind: 5mph
Humidity: 97%   Direction: 220°SW
Pressure: 30.09"   Gusts: NA
Location:  40.57°N, 88.54°W
Report Text: KBMI 241256Z 22004KT 10SM CLR 08/07 A3009 RMK AO2 T00770072 SLP194
Loading
Personal Weather Stations






























Interactive Weather Map
Tropical Storm Tracking
New forecast layout! Learn more

10-Day Weather Forecast

Advertisements
Track Severe Weather on mobile